Eudora Lee — WDB5643 — position and weather

sailwx.info

Track history (hours):
 
Tides and Currents Weather Stations Pressure Air Temp Water Temp Dewpoint Dewpoint Depression Visibility Wind Speed Wind Dir Waves Ship Positions

Eudora Lee

Owner: P & D MARINE TOWING. INC., Edgewater, FL. More information available from US FCC via Universal Licensing System and Coast Guard Vessel Documentation Center.

Last reported at 2017-Nov-03 06:03 UTC. Time now 2017-Nov-19 17:54 UTC.
Position N 27°03' W 080°07'.
Warning: this ship's position is 16 days out of date.

Length 14 m; draft 2 m.

Type: Tug. MMSI: 366911910.

Date/timePositionNaut miles runAvg speedWind from/ knotsBaromVisibWave heightAir tempDewpointWater temp
2017-Nov-03 06:03N 27°03' W 080°07'0 5.9
2017-Nov-03 06:00N 27°03' W 080°07'3 5.8
2017-Nov-03 05:30N 27°00' W 080°06'3 5.1
2017-Nov-03 05:00N 26°58' W 080°05'2 4.7
2017-Nov-03 04:30N 26°56' W 080°05'3 5.6
2017-Nov-03 04:00N 26°53' W 080°04'25 4.8
2017-Nov-02 22:48N 26°28' W 080°04'2 5.7
2017-Nov-02 22:26N 26°26' W 080°04'3 6.3
2017-Nov-02 22:00N 26°23' W 080°04'2 4.1
2017-Nov-02 21:30N 26°21' W 080°05'2 4.4
2017-Nov-02 21:00N 26°19' W 080°05'3 5.9
2017-Nov-02 20:30N 26°16' W 080°05'1 2.9
2017-Nov-02 20:00N 26°14' W 080°06'1 1.1
2017-Nov-02 19:30N 26°14' W 080°06'0 0.9
2017-Nov-02 19:00N 26°14' W 080°06'3 5.2
2017-Nov-02 18:30N 26°11' W 080°06'1 2.3
2017-Nov-02 18:00N 26°10' W 080°06'2 3.4
2017-Nov-02 17:30N 26°08' W 080°07'1 1.6
2017-Nov-02 17:00N 26°07' W 080°07'1 2.8
2017-Nov-02 16:30N 26°06' W 080°07'3 5.9
2017-Nov-02 16:00N 26°03' W 080°07'3 5.3
2017-Nov-02 15:30N 26°00' W 080°07'2 3.8
2017-Nov-02 15:00N 25°59' W 080°07'2 3.5
2017-Nov-02 14:30N 25°57' W 080°08'2 5.0
2017-Nov-02 14:00N 25°54' W 080°08'2 3.6
2017-Nov-02 13:30N 25°53' W 080°09'3 5.7
2017-Nov-02 13:00N 25°50' W 080°10'3 6.0
2017-Nov-02 12:30N 25°47' W 080°11'1 2.6
2017-Nov-02 12:00N 25°46' W 080°11'3 5.4
2017-Nov-02 11:30N 25°43' W 080°11'2 4.3
2017-Nov-02 11:00N 25°43' W 080°14'1 1.0
2017-Nov-02 10:30N 25°44' W 080°14'0 0.0
2017-Nov-02 10:00N 25°44' W 080°14'0 0.0
2017-Nov-02 09:30N 25°44' W 080°14'0 0.0
2017-Nov-02 09:00N 25°44' W 080°14'0 0.0
2017-Nov-02 08:30N 25°44' W 080°14'0 0.0
2017-Nov-02 08:00N 25°44' W 080°14'0 0.0
2017-Nov-02 07:30N 25°44' W 080°14'0 0.0
2017-Nov-02 07:00N 25°44' W 080°14'0 0.0
2017-Nov-02 06:30N 25°44' W 080°14'0 0.0
2017-Nov-02 06:00N 25°44' W 080°14'0 0.0
2017-Nov-02 05:30N 25°44' W 080°14'0 0.0
2017-Nov-02 05:00N 25°44' W 080°14'0 0.0
2017-Nov-02 04:30N 25°44' W 080°14'0 0.0
2017-Nov-02 04:00N 25°44' W 080°14'0 0.0
2017-Nov-02 03:30N 25°44' W 080°14'0 0.0
2017-Nov-02 03:00N 25°44' W 080°14'0 0.0
2017-Nov-02 02:30N 25°44' W 080°14'0 0.0
2017-Nov-02 02:00N 25°44' W 080°14'0 0.0
2017-Nov-02 01:30N 25°44' W 080°14'0 0.0
2017-Nov-02 01:00N 25°44' W 080°14'1 1.8
2017-Nov-02 00:30N 25°43' W 080°13'1 1.4
2017-Nov-02 00:00N 25°43' W 080°13'1 2.4
2017-Nov-01 23:30N 25°43' W 080°14'2 3.4
2017-Nov-01 23:00N 25°43' W 080°12'2 4.5
2017-Nov-01 22:30N 25°45' W 080°11'2 3.8
2017-Nov-01 22:00N 25°47' W 080°11'2 3.8
2017-Nov-01 21:30N 25°49' W 080°11'2 4.2
2017-Nov-01 21:00N 25°51' W 080°10'2 3.8
2017-Nov-01 20:30N 25°52' W 080°09'2 4.1
2017-Nov-01 20:00N 25°54' W 080°08'0 0.0
2017-Nov-01 19:30N 25°54' W 080°08'0 0.0
2017-Nov-01 19:00N 25°54' W 080°08'0 0.0
2017-Nov-01 18:30N 25°54' W 080°08'59 3.0
2017-Oct-31 22:58N 26°53' W 080°04'2 4.1
2017-Oct-31 22:30N 26°55' W 080°05'2 3.0
2017-Oct-31 22:00N 26°56' W 080°05'1 1.8
2017-Oct-31 21:30N 26°57' W 080°05'2 3.5
2017-Oct-31 21:00N 26°59' W 080°05'2 4.1
2017-Oct-31 20:30N 27°01' W 080°06'2 4.7
2017-Oct-31 20:00N 27°03' W 080°07'  
Track history (hours):
 
Tides and Currents Weather Stations Pressure Air Temp Water Temp Dewpoint Dewpoint Depression Visibility Wind Speed Wind Dir Waves Ship Positions

Eudora Lee

Owner: P & D MARINE TOWING. INC., Edgewater, FL. More information available from US FCC via Universal Licensing System and Coast Guard Vessel Documentation Center.

Last reported at 2017-Nov-03 06:03 UTC. Time now 2017-Nov-19 17:54 UTC.
Position N 27°03' W 080°07'.
Warning: this ship's position is 16 days out of date.

Length 14 m; draft 2 m.

Type: Tug. MMSI: 366911910.

Date/timePositionNaut miles runAvg speedWind from/ knotsBaromVisibWave heightAir tempDewpointWater temp
2017-Nov-03 06:03N 27°03' W 080°07'0 5.9
2017-Nov-03 06:00N 27°03' W 080°07'3 5.8
2017-Nov-03 05:30N 27°00' W 080°06'3 5.1
2017-Nov-03 05:00N 26°58' W 080°05'2 4.7
2017-Nov-03 04:30N 26°56' W 080°05'3 5.6
2017-Nov-03 04:00N 26°53' W 080°04'25 4.8
2017-Nov-02 22:48N 26°28' W 080°04'2 5.7
2017-Nov-02 22:26N 26°26' W 080°04'3 6.3
2017-Nov-02 22:00N 26°23' W 080°04'2 4.1
2017-Nov-02 21:30N 26°21' W 080°05'2 4.4
2017-Nov-02 21:00N 26°19' W 080°05'3 5.9
2017-Nov-02 20:30N 26°16' W 080°05'1 2.9
2017-Nov-02 20:00N 26°14' W 080°06'1 1.1
2017-Nov-02 19:30N 26°14' W 080°06'0 0.9
2017-Nov-02 19:00N 26°14' W 080°06'3 5.2
2017-Nov-02 18:30N 26°11' W 080°06'1 2.3
2017-Nov-02 18:00N 26°10' W 080°06'2 3.4
2017-Nov-02 17:30N 26°08' W 080°07'1 1.6
2017-Nov-02 17:00N 26°07' W 080°07'1 2.8
2017-Nov-02 16:30N 26°06' W 080°07'3 5.9
2017-Nov-02 16:00N 26°03' W 080°07'3 5.3
2017-Nov-02 15:30N 26°00' W 080°07'2 3.8
2017-Nov-02 15:00N 25°59' W 080°07'2 3.5
2017-Nov-02 14:30N 25°57' W 080°08'2 5.0
2017-Nov-02 14:00N 25°54' W 080°08'2 3.6
2017-Nov-02 13:30N 25°53' W 080°09'3 5.7
2017-Nov-02 13:00N 25°50' W 080°10'3 6.0
2017-Nov-02 12:30N 25°47' W 080°11'1 2.6
2017-Nov-02 12:00N 25°46' W 080°11'3 5.4
2017-Nov-02 11:30N 25°43' W 080°11'2 4.3
2017-Nov-02 11:00N 25°43' W 080°14'1 1.0
2017-Nov-02 10:30N 25°44' W 080°14'0 0.0
2017-Nov-02 10:00N 25°44' W 080°14'0 0.0
2017-Nov-02 09:30N 25°44' W 080°14'0 0.0
2017-Nov-02 09:00N 25°44' W 080°14'0 0.0
2017-Nov-02 08:30N 25°44' W 080°14'0 0.0
2017-Nov-02 08:00N 25°44' W 080°14'0 0.0
2017-Nov-02 07:30N 25°44' W 080°14'0 0.0
2017-Nov-02 07:00N 25°44' W 080°14'0 0.0
2017-Nov-02 06:30N 25°44' W 080°14'0 0.0
2017-Nov-02 06:00N 25°44' W 080°14'0 0.0
2017-Nov-02 05:30N 25°44' W 080°14'0 0.0
2017-Nov-02 05:00N 25°44' W 080°14'0 0.0
2017-Nov-02 04:30N 25°44' W 080°14'0 0.0
2017-Nov-02 04:00N 25°44' W 080°14'0 0.0
2017-Nov-02 03:30N 25°44' W 080°14'0 0.0
2017-Nov-02 03:00N 25°44' W 080°14'0 0.0
2017-Nov-02 02:30N 25°44' W 080°14'0 0.0
2017-Nov-02 02:00N 25°44' W 080°14'0 0.0
2017-Nov-02 01:30N 25°44' W 080°14'0 0.0
2017-Nov-02 01:00N 25°44' W 080°14'1 1.8
2017-Nov-02 00:30N 25°43' W 080°13'1 1.4
2017-Nov-02 00:00N 25°43' W 080°13'1 2.4
2017-Nov-01 23:30N 25°43' W 080°14'2 3.4
2017-Nov-01 23:00N 25°43' W 080°12'2 4.5
2017-Nov-01 22:30N 25°45' W 080°11'2 3.8
2017-Nov-01 22:00N 25°47' W 080°11'2 3.8
2017-Nov-01 21:30N 25°49' W 080°11'2 4.2
2017-Nov-01 21:00N 25°51' W 080°10'2 3.8
2017-Nov-01 20:30N 25°52' W 080°09'2 4.1
2017-Nov-01 20:00N 25°54' W 080°08'0 0.0
2017-Nov-01 19:30N 25°54' W 080°08'0 0.0
2017-Nov-01 19:00N 25°54' W 080°08'0 0.0
2017-Nov-01 18:30N 25°54' W 080°08'59 3.0
2017-Oct-31 22:58N 26°53' W 080°04'2 4.1
2017-Oct-31 22:30N 26°55' W 080°05'2 3.0
2017-Oct-31 22:00N 26°56' W 080°05'1 1.8
2017-Oct-31 21:30N 26°57' W 080°05'2 3.5
2017-Oct-31 21:00N 26°59' W 080°05'2 4.1
2017-Oct-31 20:30N 27°01' W 080°06'2 4.7
2017-Oct-31 20:00N 27°03' W 080°07'  

Dump ship's entire track history